首页
METAR-TAF:

METAR-TAF

机场 :

博蒙特 / Port Arthur, 得克萨斯州, 美国

纬度: 29-57-03N, 经度: 094-01-15W, 海拔: 5米

当前天气观测

该预报发布于1小时和4分钟前的10:53 UTC
风速12节,风向
温度 7°C
湿度 81%
气压 1029 hPa
能見度: 16.1公里
阴天层高于1200英尺

METAR: KBPT 111053Z AUTO 01012KT 10SM OVC012 07/04 A3040 RMK AO2 SLP295 T00670044

时间: 05:57 (11:57 UTC)

预报

该预报发布于37分钟前的11:20 UTC
预报有效从11日的 12点(UTC)到 12日的 12点(UTC)
风速14节,风向
能見度: 10公里
阴天层高于1500英尺
从 11日的 1700点(UTC)
风速14节,风向东北
能見度: 10公里
天空无云
从 11日的 2200点(UTC)
风速11节,风向东北
能見度: 10公里
天空无云

TAF: KBPT 111120Z 1112/1212 01014KT P6SM OVC015 FM111700 04014KT P6SM SKC FM112200 05011KT P6SM SKC

超过4000个机场的气象观测和天气预报(METAR&TAF报告)。

可查询的气象台以黄色和红色小点在地图上表示。

将鼠标移到小点上方,可查看气象台名称。

然后点击查看天气观测和预报。

如需切换地图:点击带黑十字的绿色按钮放大地图;点击带横线的绿色按钮缩小地图;或者点击绿色箭头查看邻近地区的地图。


METAR-TAF: